Time;durP1;ratioP1;P1;durP2;ratioP2;P2;SDS_P1;SDS_P2;PMS_P1;PMS_P2;Temp;Humidity;BMP_temperature;BMP_pressure;BME280_temperature;BME280_humidity;BME280_pressure;Samples;Min_cycle;Max_cycle;Signal;HPM_P1;HPM_P2
2023/07/18 00:00:35;;;;;;;0.10;0.10;;;15.30;99.90;;;;;;5019344;28;20045;-67
2023/07/18 00:03:03;;;;;;;0.00;0.00;;;15.30;99.90;;;;;;5029071;28;20604;-68
2023/07/18 00:05:29;;;;;;;0.32;0.32;;;15.30;99.90;;;;;;5043199;28;20049;-68
2023/07/18 00:07:55;;;;;;;0.70;0.57;;;15.30;99.90;;;;;;5046825;28;20046;-68
2023/07/18 00:10:22;;;;;;;0.00;0.00;;;15.30;99.90;;;;;;5044828;28;20538;-68
2023/07/18 00:12:49;;;;;;;0.03;0.03;;;15.40;99.90;;;;;;5007805;28;20493;-68
2023/07/18 00:15:14;;;;;;;0.60;0.60;;;15.40;99.90;;;;;;5038714;28;20428;-68
2023/07/18 00:17:41;;;;;;;0.17;0.17;;;15.40;99.90;;;;;;5011276;28;20052;-68
2023/07/18 00:20:09;;;;;;;0.00;0.00;;;15.50;99.90;;;;;;5025038;28;20054;-68
2023/07/18 00:22:35;;;;;;;0.52;0.52;;;15.50;99.90;;;;;;5031593;28;20037;-67
2023/07/18 00:25:01;;;;;;;0.20;0.20;;;15.50;99.90;;;;;;5038329;28;20138;-67
2023/07/18 00:27:28;;;;;;;0.00;0.00;;;15.50;99.90;;;;;;5041045;28;20506;-67
2023/07/18 00:29:55;;;;;;;0.10;0.10;;;15.60;99.90;;;;;;5026801;28;20052;-68
2023/07/18 00:32:22;;;;;;;0.00;0.00;;;15.60;99.90;;;;;;5028311;28;20111;-68
2023/07/18 00:34:56;;;;;;;0.05;0.05;;;15.50;99.90;;;;;;5034544;28;20041;-68
2023/07/18 00:37:22;;;;;;;;;;;15.50;99.90;;;;;;5041229;28;20412;-67
2023/07/18 00:39:47;;;;;;;0.10;0.10;;;15.50;99.90;;;;;;5040764;28;19932;-68
2023/07/18 00:42:13;;;;;;;0.00;0.00;;;15.60;99.90;;;;;;5031721;28;20507;-67
2023/07/18 00:44:39;;;;;;;0.10;0.10;;;15.60;99.90;;;;;;5036459;28;20147;-68
2023/07/18 00:47:07;;;;;;;1.00;0.73;;;15.60;99.90;;;;;;5015323;28;20064;-68
2023/07/18 00:49:33;;;;;;;0.20;0.20;;;15.60;99.90;;;;;;5025412;28;20489;-68
2023/07/18 00:52:01;;;;;;;0.00;0.00;;;15.60;99.90;;;;;;5033638;28;20124;-68
2023/07/18 00:54:27;;;;;;;0.55;0.38;;;15.60;99.90;;;;;;5023680;28;20437;-68
2023/07/18 00:56:54;;;;;;;0.47;0.30;;;15.60;99.90;;;;;;5030409;28;20081;-68
2023/07/18 00:59:21;;;;;;;0.00;0.00;;;15.50;99.90;;;;;;5028310;28;20100;-68
2023/07/18 01:01:47;;;;;;;0.00;0.00;;;15.50;99.90;;;;;;5023155;28;20049;-68
2023/07/18 01:04:13;;;;;;;0.30;0.30;;;15.40;99.90;;;;;;5022029;28;20091;-68
2023/07/18 01:06:39;;;;;;;0.00;0.00;;;15.50;99.90;;;;;;5038586;28;20036;-68
2023/07/18 01:09:05;;;;;;;0.65;0.65;;;15.50;99.90;;;;;;5014211;28;20144;-68
2023/07/18 01:11:33;;;;;;;0.00;0.00;;;15.40;99.90;;;;;;5034352;28;20124;-68
2023/07/18 01:13:58;;;;;;;0.00;0.00;;;15.40;99.90;;;;;;5022862;28;20124;-68
2023/07/18 01:16:24;;;;;;;0.00;0.00;;;15.40;99.90;;;;;;5037966;28;20132;-68
2023/07/18 01:18:50;;;;;;;0.00;0.00;;;15.40;99.90;;;;;;5021212;28;20033;-68
2023/07/18 01:21:20;;;;;;;0.20;0.20;;;15.50;99.90;;;;;;5038739;28;20075;-68
2023/07/18 01:23:46;;;;;;;0.00;0.00;;;15.50;99.90;;;;;;5007654;28;20045;-68
2023/07/18 01:26:12;;;;;;;0.05;0.05;;;15.50;99.90;;;;;;5031163;28;20047;-67
2023/07/18 01:28:38;;;;;;;0.20;0.20;;;15.50;99.90;;;;;;5022537;28;20038;-68
2023/07/18 01:31:05;;;;;;;0.20;0.20;;;15.40;99.90;;;;;;5037969;28;20377;-68
2023/07/18 01:33:31;;;;;;;0.63;0.60;;;15.40;99.90;;;;;;5022426;28;20049;-68
2023/07/18 01:35:58;;;;;;;2.28;0.65;;;15.40;99.90;;;;;;5006330;28;20049;-68
2023/07/18 01:38:29;;;;;;;0.20;0.20;;;15.40;99.90;;;;;;5041567;28;20099;-67
2023/07/18 01:40:59;;;;;;;0.00;0.00;;;15.40;99.90;;;;;;5022751;28;20445;-68
2023/07/18 01:43:24;;;;;;;0.00;0.00;;;15.40;99.90;;;;;;5033733;28;20045;-68
2023/07/18 01:45:50;;;;;;;0.00;0.00;;;15.40;99.90;;;;;;5033905;28;20929;-67
2023/07/18 01:48:16;;;;;;;0.20;0.20;;;15.40;99.90;;;;;;5040286;28;20041;-68
2023/07/18 01:50:43;;;;;;;0.03;0.03;;;15.50;99.90;;;;;;5025765;28;20037;-68
2023/07/18 01:53:10;;;;;;;0.00;0.00;;;15.40;99.90;;;;;;5019891;28;20045;-68
2023/07/18 01:55:37;;;;;;;0.20;0.20;;;15.40;99.90;;;;;;5039595;28;20128;-68
2023/07/18 01:58:03;;;;;;;0.00;0.00;;;15.40;99.90;;;;;;5037195;28;20088;-68
2023/07/18 02:00:30;;;;;;;0.28;0.17;;;15.40;99.90;;;;;;5029845;28;20037;-68
2023/07/18 02:02:57;;;;;;;0.00;0.00;;;15.40;99.90;;;;;;5024036;28;20144;-68
2023/07/18 02:05:28;;;;;;;0.00;0.00;;;15.40;99.90;;;;;;5030797;28;20071;-68
2023/07/18 02:07:54;;;;;;;0.00;0.00;;;15.50;99.90;;;;;;5016271;28;20056;-68
2023/07/18 02:10:21;;;;;;;0.00;0.00;;;15.50;99.90;;;;;;5026527;28;20128;-68
2023/07/18 02:12:52;;;;;;;0.10;0.10;;;15.50;99.90;;;;;;5024054;28;20129;-68
2023/07/18 02:15:20;;;;;;;0.00;0.00;;;15.50;99.90;;;;;;5036805;28;20037;-68
2023/07/18 02:17:46;;;;;;;0.00;0.00;;;15.50;99.90;;;;;;5040965;28;20041;-68
2023/07/18 02:20:14;;;;;;;0.00;0.00;;;15.50;99.90;;;;;;5040297;28;20382;-68
2023/07/18 02:22:41;;;;;;;5.18;0.43;;;15.50;99.90;;;;;;5024217;28;20504;-68
2023/07/18 02:25:07;;;;;;;0.60;0.45;;;15.40;99.90;;;;;;5016573;28;20126;-68
2023/07/18 02:27:34;;;;;;;0.05;0.05;;;15.40;99.90;;;;;;5038567;28;20037;-68
2023/07/18 02:30:01;;;;;;;4.78;1.65;;;15.50;99.90;;;;;;5014906;28;20041;-68
2023/07/18 02:32:29;;;;;;;0.00;0.00;;;15.40;99.90;;;;;;5024055;28;20465;-68
2023/07/18 02:34:55;;;;;;;0.98;0.65;;;15.40;99.90;;;;;;5017107;28;20060;-68
2023/07/18 02:37:20;;;;;;;0.20;0.20;;;15.40;99.90;;;;;;5038171;28;20123;-68
2023/07/18 02:39:46;;;;;;;0.10;0.10;;;15.40;99.90;;;;;;5016884;28;20481;-68
2023/07/18 02:42:12;;;;;;;0.10;0.10;;;15.40;99.90;;;;;;5009517;28;20048;-68
2023/07/18 02:44:38;;;;;;;0.00;0.00;;;15.40;99.90;;;;;;5036685;28;20034;-68
2023/07/18 02:47:04;;;;;;;0.00;0.00;;;15.40;99.90;;;;;;5025116;28;20136;-67
2023/07/18 02:49:30;;;;;;;0.20;0.20;;;15.40;99.90;;;;;;5034003;28;20067;-68
2023/07/18 02:51:55;;;;;;;0.00;0.00;;;15.20;99.90;;;;;;5040005;28;20084;-68
2023/07/18 02:54:22;;;;;;;0.05;0.05;;;15.20;99.90;;;;;;5034713;28;20073;-68
2023/07/18 02:56:48;;;;;;;0.00;0.00;;;15.20;99.90;;;;;;5023307;28;20058;-66
2023/07/18 02:59:20;;;;;;;0.00;0.00;;;15.20;99.90;;;;;;5029309;28;20063;-67
2023/07/18 03:01:47;;;;;;;0.00;0.00;;;15.20;99.90;;;;;;5035279;28;20366;-66
2023/07/18 03:04:13;;;;;;;19.75;0.70;;;15.30;99.90;;;;;;5026391;28;20087;-67
2023/07/18 03:06:38;;;;;;;0.00;0.00;;;15.20;99.90;;;;;;5034593;28;20094;-66
2023/07/18 03:09:05;;;;;;;0.00;0.00;;;15.30;99.90;;;;;;5021700;28;20053;-67
2023/07/18 03:11:31;;;;;;;3.20;0.50;;;15.40;99.90;;;;;;5011890;28;20408;-66
2023/07/18 03:13:57;;;;;;;0.15;0.05;;;15.30;99.90;;;;;;5021566;28;20079;-66
2023/07/18 03:16:22;;;;;;;0.03;0.03;;;15.30;99.90;;;;;;5023057;28;20055;-67
2023/07/18 03:18:48;;;;;;;0.00;0.00;;;15.20;99.90;;;;;;5023850;28;20041;-67
2023/07/18 03:21:16;;;;;;;1.67;0.73;;;15.20;99.90;;;;;;5017284;28;20041;-66
2023/07/18 03:23:41;;;;;;;0.08;0.08;;;15.20;99.90;;;;;;5039485;28;20041;-68
2023/07/18 03:26:07;;;;;;;0.10;0.10;;;15.10;99.90;;;;;;5031484;28;20050;-68
2023/07/18 03:28:33;;;;;;;0.00;0.00;;;15.10;99.90;;;;;;5029175;28;20084;-68
2023/07/18 03:30:58;;;;;;;0.28;0.28;;;15.10;99.90;;;;;;5044401;28;20116;-68
2023/07/18 03:33:24;;;;;;;0.05;0.05;;;15.10;99.90;;;;;;5027950;28;20042;-68
2023/07/18 03:35:49;;;;;;;0.00;0.00;;;15.20;99.90;;;;;;5033608;28;20038;-69
2023/07/18 03:38:15;;;;;;;0.55;0.55;;;15.20;99.90;;;;;;5018880;28;20084;-68
2023/07/18 03:40:41;;;;;;;0.03;0.03;;;15.20;99.90;;;;;;5043360;28;20103;-68
2023/07/18 03:43:07;;;;;;;0.00;0.00;;;15.20;99.90;;;;;;5041879;28;20045;-68
2023/07/18 03:45:33;;;;;;;1.00;0.68;;;15.30;99.90;;;;;;5037169;28;20053;-68
2023/07/18 03:47:59;;;;;;;0.10;0.10;;;15.30;99.90;;;;;;5029212;28;20063;-68
2023/07/18 03:50:24;;;;;;;0.10;0.10;;;15.40;99.90;;;;;;5042750;28;20473;-68
2023/07/18 03:52:50;;;;;;;0.00;0.00;;;15.40;99.90;;;;;;5045142;28;20064;-68
2023/07/18 03:55:16;;;;;;;0.40;0.40;;;15.40;99.90;;;;;;5027585;28;20049;-69
2023/07/18 03:57:42;;;;;;;0.30;0.30;;;15.40;99.90;;;;;;5029682;28;20033;-68
2023/07/18 04:00:13;;;;;;;0.22;0.22;;;15.40;99.90;;;;;;5034848;28;20050;-68
2023/07/18 04:02:42;;;;;;;0.00;0.00;;;15.50;99.90;;;;;;5018213;28;20132;-68
2023/07/18 04:05:08;;;;;;;0.00;0.00;;;15.50;99.90;;;;;;5028256;28;20054;-68
2023/07/18 04:07:34;;;;;;;0.00;0.00;;;15.60;99.90;;;;;;5034977;28;20053;-68
2023/07/18 04:09:59;;;;;;;0.00;0.00;;;15.60;99.90;;;;;;5029244;28;20049;-68
2023/07/18 04:12:25;;;;;;;0.80;0.70;;;15.60;99.90;;;;;;5034036;28;20038;-68
2023/07/18 04:14:51;;;;;;;0.00;0.00;;;15.60;99.90;;;;;;5018306;28;20484;-68
2023/07/18 04:17:17;;;;;;;3.00;0.55;;;15.60;99.90;;;;;;5039243;28;20043;-68
2023/07/18 04:19:42;;;;;;;0.00;0.00;;;15.60;99.90;;;;;;5041695;28;20124;-68
2023/07/18 04:22:08;;;;;;;0.00;0.00;;;15.70;99.90;;;;;;5035576;28;20041;-68
2023/07/18 04:24:34;;;;;;;0.10;0.10;;;15.60;99.90;;;;;;5023908;28;20049;-68
2023/07/18 04:26:59;;;;;;;0.73;0.57;;;15.70;99.90;;;;;;5037991;28;20069;-68
2023/07/18 04:29:25;;;;;;;0.00;0.00;;;15.70;99.90;;;;;;5024718;28;20060;-68
2023/07/18 04:31:51;;;;;;;0.43;0.43;;;15.70;99.90;;;;;;5035322;28;20046;-69
2023/07/18 04:34:17;;;;;;;0.88;0.77;;;15.70;99.90;;;;;;5018685;28;20050;-68
2023/07/18 04:36:43;;;;;;;0.00;0.00;;;15.70;99.90;;;;;;5043054;28;20056;-68
2023/07/18 04:39:09;;;;;;;0.30;0.30;;;15.70;99.90;;;;;;5041299;28;20041;-68
2023/07/18 04:41:35;;;;;;;0.10;0.10;;;15.80;99.90;;;;;;5013126;28;20050;-68
2023/07/18 04:44:00;;;;;;;1.20;0.93;;;15.80;99.90;;;;;;5033246;28;20029;-68
2023/07/18 04:46:26;;;;;;;0.17;0.17;;;15.80;99.90;;;;;;5035982;28;20072;-68
2023/07/18 04:48:52;;;;;;;0.13;0.13;;;15.80;99.90;;;;;;5020907;28;20041;-68
2023/07/18 04:51:18;;;;;;;0.65;0.30;;;15.80;99.90;;;;;;5038844;28;20476;-68
2023/07/18 04:53:43;;;;;;;1.00;0.40;;;15.90;99.90;;;;;;5039850;28;20076;-68
2023/07/18 04:56:09;;;;;;;8.57;1.48;;;15.90;99.90;;;;;;5035531;28;20090;-68
2023/07/18 04:58:35;;;;;;;0.32;0.32;;;15.80;99.90;;;;;;5026120;28;20045;-68
2023/07/18 05:01:02;;;;;;;0.20;0.20;;;15.80;99.90;;;;;;5038305;28;20124;-68
2023/07/18 05:03:28;;;;;;;0.10;0.10;;;15.90;99.90;;;;;;5029068;28;20067;-68
2023/07/18 05:05:55;;;;;;;0.22;0.22;;;15.90;99.90;;;;;;5032368;28;20041;-68
2023/07/18 05:08:21;;;;;;;0.00;0.00;;;15.90;99.90;;;;;;5024097;28;20443;-68
2023/07/18 05:10:46;;;;;;;0.15;0.15;;;16.00;99.90;;;;;;5020796;28;20141;-68
2023/07/18 05:13:12;;;;;;;0.47;0.47;;;16.00;99.90;;;;;;5032091;28;20176;-68
2023/07/18 05:15:40;;;;;;;1.25;0.88;;;16.10;99.90;;;;;;5026334;28;20444;-69
2023/07/18 05:18:06;;;;;;;0.00;0.00;;;16.10;99.90;;;;;;5035797;28;20049;-68
2023/07/18 05:20:31;;;;;;;0.00;0.00;;;16.20;99.90;;;;;;5015218;28;20045;-69
2023/07/18 05:22:58;;;;;;;0.00;0.00;;;16.20;99.90;;;;;;5027135;28;20033;-68
2023/07/18 05:25:24;;;;;;;0.25;0.25;;;16.20;99.90;;;;;;5038993;28;20496;-68
2023/07/18 05:27:49;;;;;;;0.00;0.00;;;16.30;99.90;;;;;;5012150;28;20047;-68
2023/07/18 05:30:17;;;;;;;0.00;0.00;;;16.30;99.90;;;;;;5037191;28;20038;-69
2023/07/18 05:32:44;;;;;;;0.00;0.00;;;16.30;99.90;;;;;;5018774;28;20116;-69
2023/07/18 05:35:13;;;;;;;0.10;0.10;;;16.40;99.90;;;;;;5034385;28;20067;-68
2023/07/18 05:37:40;;;;;;;0.10;0.10;;;16.40;99.90;;;;;;5040429;28;20041;-69
2023/07/18 05:40:10;;;;;;;0.15;0.15;;;16.40;99.90;;;;;;5029699;28;20438;-68
2023/07/18 05:42:40;;;;;;;0.00;0.00;;;16.50;99.90;;;;;;5021166;28;20057;-68
2023/07/18 05:45:10;;;;;;;0.13;0.13;;;16.50;99.90;;;;;;5032990;28;20049;-68
2023/07/18 05:47:36;;;;;;;0.13;0.13;;;16.60;99.90;;;;;;5038751;28;20091;-68
2023/07/18 05:50:04;;;;;;;0.00;0.00;;;16.60;99.90;;;;;;5039375;28;20080;-68
2023/07/18 05:52:29;;;;;;;0.00;0.00;;;16.60;99.90;;;;;;5015093;28;20049;-68
2023/07/18 05:54:55;;;;;;;0.00;0.00;;;16.60;99.90;;;;;;5015544;28;20051;-68
2023/07/18 05:57:21;;;;;;;0.00;0.00;;;16.60;99.90;;;;;;5003232;28;20761;-68
2023/07/18 05:59:46;;;;;;;0.08;0.08;;;16.60;99.90;;;;;;5022545;28;20482;-68
2023/07/18 06:02:12;;;;;;;0.20;0.20;;;16.70;99.90;;;;;;5026498;28;20068;-69
2023/07/18 06:04:38;;;;;;;0.00;0.00;;;16.70;99.90;;;;;;5025880;28;20409;-68
2023/07/18 06:07:04;;;;;;;0.10;0.10;;;16.70;99.90;;;;;;5041479;28;20045;-68
2023/07/18 06:09:29;;;;;;;0.30;0.30;;;16.80;99.90;;;;;;5040336;28;20052;-68
2023/07/18 06:11:55;;;;;;;0.10;0.10;;;16.80;99.90;;;;;;5027626;28;20041;-68
2023/07/18 06:14:21;;;;;;;0.00;0.00;;;16.80;99.90;;;;;;5032167;28;20033;-68
2023/07/18 06:16:47;;;;;;;0.00;0.00;;;16.90;99.90;;;;;;5035431;28;20060;-68
2023/07/18 06:19:13;;;;;;;0.10;0.10;;;16.90;99.90;;;;;;5038247;28;20445;-69
2023/07/18 06:21:39;;;;;;;0.00;0.00;;;17.00;99.90;;;;;;5025559;28;20045;-68
2023/07/18 06:24:05;;;;;;;0.00;0.00;;;17.10;99.90;;;;;;5024710;28;20044;-69
2023/07/18 06:26:31;;;;;;;0.10;0.10;;;17.20;99.90;;;;;;5022321;28;20075;-69
2023/07/18 06:28:56;;;;;;;0.15;0.15;;;17.20;99.90;;;;;;5029854;28;20037;-68
2023/07/18 06:31:23;;;;;;;1.25;1.08;;;17.30;99.90;;;;;;5022149;28;20057;-68
2023/07/18 06:33:48;;;;;;;0.28;0.28;;;17.30;99.90;;;;;;5024468;28;20658;-69
2023/07/18 06:36:15;;;;;;;0.00;0.00;;;17.40;99.90;;;;;;5034919;28;20041;-68
2023/07/18 06:38:41;;;;;;;0.25;0.25;;;17.50;99.90;;;;;;5039821;28;20469;-68
2023/07/18 06:41:07;;;;;;;0.00;0.00;;;17.50;99.90;;;;;;5020134;28;20136;-69
2023/07/18 06:43:32;;;;;;;0.00;0.00;;;17.50;99.90;;;;;;5034708;28;20041;-68
2023/07/18 06:45:59;;;;;;;1.55;0.57;;;17.60;99.90;;;;;;5039691;28;20033;-69
2023/07/18 06:48:24;;;;;;;0.00;0.00;;;17.60;99.90;;;;;;5037296;28;20100;-68
2023/07/18 06:50:52;;;;;;;0.00;0.00;;;17.70;99.90;;;;;;5023090;28;20513;-68
2023/07/18 06:53:21;;;;;;;0.00;0.00;;;17.80;99.90;;;;;;5040508;28;20494;-68
2023/07/18 06:55:48;;;;;;;0.00;0.00;;;17.80;99.90;;;;;;5014985;28;20111;-68
2023/07/18 06:58:17;;;;;;;0.10;0.10;;;17.90;99.90;;;;;;5023827;28;20049;-68
2023/07/18 07:00:44;;;;;;;0.00;0.00;;;18.00;99.90;;;;;;5035545;28;20529;-68
2023/07/18 07:03:09;;;;;;;0.00;0.00;;;18.00;99.90;;;;;;5042357;28;20060;-68
2023/07/18 07:05:39;;;;;;;5.93;1.17;;;18.20;99.90;;;;;;5018420;28;20057;-68
2023/07/18 07:08:12;;;;;;;0.35;0.35;;;18.20;99.90;;;;;;5026483;28;20050;-68
2023/07/18 07:10:39;;;;;;;0.00;0.00;;;18.20;99.90;;;;;;5023215;28;20041;-68
2023/07/18 07:13:06;;;;;;;0.20;0.20;;;18.20;99.90;;;;;;5022179;28;21209;-68
2023/07/18 07:15:35;;;;;;;0.00;0.00;;;18.20;99.90;;;;;;5025854;28;20092;-68
2023/07/18 07:18:02;;;;;;;0.98;0.60;;;18.20;99.90;;;;;;5024050;28;20457;-68
2023/07/18 07:20:30;;;;;;;0.10;0.10;;;18.30;99.90;;;;;;5025868;28;20128;-68
2023/07/18 07:22:56;;;;;;;0.10;0.10;;;18.30;99.90;;;;;;5026167;28;20056;-68
2023/07/18 07:25:22;;;;;;;2.80;1.50;;;18.40;99.90;;;;;;5017959;28;20053;-68
2023/07/18 07:27:47;;;;;;;0.00;0.00;;;18.50;99.90;;;;;;5013716;28;20037;-68
2023/07/18 07:30:15;;;;;;;0.03;0.03;;;18.60;99.90;;;;;;5040547;28;20049;-68
2023/07/18 07:32:44;;;;;;;0.00;0.00;;;18.60;99.90;;;;;;5039809;28;20041;-68
2023/07/18 07:35:09;;;;;;;8.20;1.45;;;18.70;99.90;;;;;;5030348;28;20447;-68
2023/07/18 07:37:36;;;;;;;0.10;0.10;;;18.80;99.90;;;;;;5028807;28;20041;-68
2023/07/18 07:40:06;;;;;;;0.00;0.00;;;18.80;99.90;;;;;;5029192;28;20390;-68
2023/07/18 07:42:32;;;;;;;0.00;0.00;;;18.70;99.90;;;;;;5034753;28;20038;-68
2023/07/18 07:44:58;;;;;;;0.00;0.00;;;18.80;99.90;;;;;;5036339;28;20051;-68
2023/07/18 07:47:23;;;;;;;0.00;0.00;;;18.80;99.90;;;;;;5015465;28;20042;-67
2023/07/18 07:49:49;;;;;;;0.08;0.08;;;18.90;99.90;;;;;;5024864;28;20042;-68
2023/07/18 07:52:14;;;;;;;0.00;0.00;;;18.90;99.90;;;;;;5039159;28;20086;-68
2023/07/18 07:54:40;;;;;;;0.10;0.10;;;18.90;99.90;;;;;;5034386;28;20044;-68
2023/07/18 07:57:06;;;;;;;0.15;0.15;;;18.80;99.90;;;;;;5035105;28;20058;-68
2023/07/18 07:59:32;;;;;;;0.00;0.00;;;18.70;99.90;;;;;;5029506;28;20354;-68
2023/07/18 08:01:57;;;;;;;0.10;0.10;;;18.70;99.90;;;;;;5030237;28;20112;-68
2023/07/18 08:04:23;;;;;;;0.00;0.00;;;18.70;99.90;;;;;;5028308;28;20489;-67
2023/07/18 08:06:49;;;;;;;0.10;0.10;;;18.70;99.90;;;;;;5031339;28;20045;-68
2023/07/18 08:09:15;;;;;;;0.00;0.00;;;18.80;99.90;;;;;;5027813;28;20894;-68
2023/07/18 08:11:40;;;;;;;0.00;0.00;;;19.00;99.90;;;;;;5029958;28;20041;-68
2023/07/18 08:14:07;;;;;;;0.20;0.10;;;19.00;99.90;;;;;;5025781;28;20540;-68
2023/07/18 08:16:33;;;;;;;0.00;0.00;;;19.00;99.90;;;;;;5035829;28;20052;-68
2023/07/18 08:18:58;;;;;;;0.17;0.15;;;19.00;99.90;;;;;;5036393;28;20042;-68
2023/07/18 08:21:24;;;;;;;0.00;0.00;;;19.00;99.90;;;;;;5035451;28;20126;-68
2023/07/18 08:23:50;;;;;;;0.45;0.32;;;19.00;99.90;;;;;;5008867;28;20635;-68
2023/07/18 08:26:16;;;;;;;0.00;0.00;;;19.00;99.90;;;;;;5038879;28;20144;-68
2023/07/18 08:28:41;;;;;;;0.10;0.10;;;19.00;99.90;;;;;;5023226;28;20042;-68
2023/07/18 08:31:07;;;;;;;2.72;1.45;;;19.20;99.90;;;;;;5008314;28;20053;-67
2023/07/18 08:33:33;;;;;;;0.00;0.00;;;19.20;99.90;;;;;;5042326;28;20054;-68
2023/07/18 08:35:58;;;;;;;0.10;0.10;;;19.30;99.90;;;;;;5026579;28;20437;-68
2023/07/18 08:38:24;;;;;;;0.00;0.00;;;19.40;99.90;;;;;;5026383;28;20500;-68
2023/07/18 08:40:49;;;;;;;0.60;0.55;;;19.50;99.90;;;;;;5030415;28;20045;-68
2023/07/18 08:43:18;;;;;;;5.18;0.90;;;19.50;99.90;;;;;;5039359;28;20470;-68
2023/07/18 08:45:44;;;;;;;0.17;0.17;;;19.50;99.90;;;;;;5029685;28;20401;-68
2023/07/18 08:48:12;;;;;;;0.00;0.00;;;19.50;99.90;;;;;;5040524;28;20053;-68
2023/07/18 08:50:40;;;;;;;0.00;0.00;;;19.60;99.90;;;;;;5044226;28;20489;-68
2023/07/18 08:53:05;;;;;;;0.08;0.08;;;19.60;99.90;;;;;;5025100;28;20430;-68
2023/07/18 08:55:31;;;;;;;1.38;0.82;;;19.70;99.90;;;;;;5034317;28;20091;-68
2023/07/18 08:57:59;;;;;;;0.65;0.45;;;19.90;99.90;;;;;;5038666;28;20040;-68
2023/07/18 09:00:25;;;;;;;0.00;0.00;;;20.00;99.90;;;;;;5031847;28;20053;-68
2023/07/18 09:02:50;;;;;;;0.10;0.10;;;20.00;99.90;;;;;;5036530;28;20102;-68
2023/07/18 09:05:31;;;;;;;0.00;0.00;;;20.00;99.90;;;;;;5030908;28;20049;-67
2023/07/18 09:07:58;;;;;;;0.00;0.00;;;20.00;99.90;;;;;;5029935;28;20052;-67
2023/07/18 09:10:24;;;;;;;0.00;0.00;;;20.00;99.90;;;;;;5025880;28;20055;-68
2023/07/18 09:12:50;;;;;;;0.00;0.00;;;20.00;99.90;;;;;;5015131;28;20041;-68
2023/07/18 09:15:20;;;;;;;0.00;0.00;;;20.00;99.90;;;;;;5023928;28;20041;-68
2023/07/18 09:18:06;;;;;;;0.20;0.20;;;20.00;99.90;;;;;;5015626;28;20112;-68
2023/07/18 09:20:32;;;;;;;0.30;0.30;;;20.00;99.90;;;;;;5031147;28;20046;-68
2023/07/18 09:23:03;;;;;;;0.20;0.20;;;20.00;99.90;;;;;;5026489;28;20096;-68
2023/07/18 09:25:29;;;;;;;0.00;0.00;;;20.20;99.90;;;;;;5030123;28;20396;-67
2023/07/18 09:27:56;;;;;;;0.00;0.00;;;20.30;99.90;;;;;;5040676;28;20045;-68
2023/07/18 09:30:26;;;;;;;0.08;0.08;;;20.40;99.90;;;;;;5029300;28;20084;-68
2023/07/18 09:32:53;;;;;;;0.10;0.10;;;20.60;99.90;;;;;;5043319;28;20076;-68
2023/07/18 09:35:19;;;;;;;0.00;0.00;;;20.70;99.90;;;;;;5039801;28;20061;-68
2023/07/18 09:37:47;;;;;;;0.00;0.00;;;20.70;99.90;;;;;;5041534;28;20041;-68
2023/07/18 09:40:14;;;;;;;0.00;0.00;;;20.70;99.90;;;;;;5024700;28;20057;-68
2023/07/18 09:42:45;;;;;;;0.17;0.17;;;20.80;99.90;;;;;;5043387;28;20037;-68
2023/07/18 09:45:12;;;;;;;0.00;0.00;;;21.00;99.90;;;;;;5019667;28;20119;-68
2023/07/18 09:47:39;;;;;;;0.15;0.15;;;21.10;99.90;;;;;;5039377;28;20036;-68
2023/07/18 09:50:05;;;;;;;0.05;0.05;;;21.50;99.90;;;;;;5039559;28;20095;-68
2023/07/18 09:52:38;;;;;;;0.00;0.00;;;22.00;99.90;;;;;;5025854;28;20052;-68
2023/07/18 09:55:06;;;;;;;17.42;0.55;;;22.30;99.90;;;;;;5028568;28;20048;-68
2023/07/18 09:57:36;;;;;;;0.00;0.00;;;22.60;99.90;;;;;;5038304;28;20091;-68
2023/07/18 10:00:05;;;;;;;0.00;0.00;;;22.40;99.90;;;;;;5040903;28;20040;-68
2023/07/18 10:02:36;;;;;;;0.00;0.00;;;22.10;99.90;;;;;;5017241;28;20038;-68
2023/07/18 10:05:04;;;;;;;0.80;0.80;;;21.80;99.90;;;;;;5032467;28;20042;-68
2023/07/18 10:07:34;;;;;;;0.10;0.10;;;21.50;99.90;;;;;;5039942;28;20034;-68
2023/07/18 10:10:01;;;;;;;0.00;0.00;;;21.20;99.90;;;;;;5015199;28;20045;-68
2023/07/18 10:12:27;;;;;;;0.00;0.00;;;21.10;99.90;;;;;;5034344;28;20057;-68
2023/07/18 10:15:00;;;;;;;0.00;0.00;;;21.10;99.90;;;;;;5029368;28;20481;-68
2023/07/18 10:17:27;;;;;;;0.00;0.00;;;21.20;99.90;;;;;;5012047;28;20516;-68
2023/07/18 10:19:52;;;;;;;0.00;0.00;;;21.20;99.90;;;;;;5024860;28;20137;-68
2023/07/18 10:22:36;;;;;;;2.92;0.35;;;21.10;99.90;;;;;;5028994;28;20125;-68
2023/07/18 10:25:07;;;;;;;2.92;0.60;;;20.90;99.90;;;;;;5026972;28;20053;-68
2023/07/18 10:27:40;;;;;;;0.03;0.03;;;20.90;99.90;;;;;;5027901;28;20472;-68
2023/07/18 10:30:11;;;;;;;2.05;0.85;;;20.90;99.90;;;;;;5023942;28;20474;-68
2023/07/18 10:32:38;;;;;;;0.00;0.00;;;20.90;99.90;;;;;;5044701;28;20048;-69
2023/07/18 10:35:15;;;;;;;0.00;0.00;;;20.80;99.90;;;;;;5008910;28;20049;-68
2023/07/18 10:37:44;;;;;;;0.00;0.00;;;20.90;99.90;;;;;;5032067;28;20063;-68
2023/07/18 10:40:29;;;;;;;3.53;1.65;;;21.00;99.90;;;;;;5044951;28;20045;-68
2023/07/18 10:42:55;;;;;;;0.28;0.13;;;21.40;99.90;;;;;;5044113;28;20124;-68
2023/07/18 10:45:20;;;;;;;0.45;0.38;;;21.80;99.90;;;;;;5031283;28;20141;-67
2023/07/18 10:47:46;;;;;;;0.43;0.43;;;22.00;99.90;;;;;;5031526;28;20141;-68
2023/07/18 10:50:14;;;;;;;0.10;0.10;;;22.20;99.90;;;;;;5022168;28;20046;-68
2023/07/18 10:52:40;;;;;;;0.20;0.20;;;22.40;99.90;;;;;;5036438;28;20045;-68
2023/07/18 10:55:07;;;;;;;1.80;0.65;;;22.60;99.90;;;;;;5037022;28;20056;-68
2023/07/18 10:57:35;;;;;;;0.08;0.08;;;22.50;99.90;;;;;;5024389;28;20095;-69
2023/07/18 11:00:05;;;;;;;0.13;0.13;;;22.40;99.90;;;;;;5031741;28;20680;-67
2023/07/18 11:02:42;;;;;;;0.77;0.65;;;22.60;99.90;;;;;;5024567;28;20049;-68
2023/07/18 11:05:11;;;;;;;0.00;0.00;;;22.20;99.90;;;;;;5031795;28;20443;-68
2023/07/18 11:07:46;;;;;;;0.30;0.30;;;22.60;99.90;;;;;;5042355;28;20041;-68
2023/07/18 11:10:15;;;;;;;0.10;0.10;;;22.50;99.90;;;;;;5020341;28;20163;-68
2023/07/18 11:12:41;;;;;;;0.00;0.00;;;22.30;99.90;;;;;;5023381;28;20526;-68
2023/07/18 11:15:09;;;;;;;0.15;0.15;;;22.60;99.90;;;;;;5041276;28;20057;-68
2023/07/18 11:17:35;;;;;;;1.00;0.38;;;22.80;99.90;;;;;;5028976;28;20561;-69
2023/07/18 11:20:02;;;;;;;0.00;0.00;;;23.00;99.90;;;;;;5025353;28;20053;-68
2023/07/18 11:22:29;;;;;;;0.00;0.00;;;23.00;99.90;;;;;;5022221;28;20037;-69
2023/07/18 11:24:55;;;;;;;0.00;0.00;;;23.10;99.90;;;;;;5026567;28;20060;-68
2023/07/18 11:27:29;;;;;;;0.38;0.38;;;23.10;99.90;;;;;;5035915;28;20528;-69
2023/07/18 11:29:55;;;;;;;;;;;23.20;99.90;;;;;;5039002;28;20400;-68
2023/07/18 11:32:41;;;;;;;0.10;0.10;;;23.50;99.90;;;;;;4995096;28;19994;-69
2023/07/18 11:35:11;;;;;;;0.00;0.00;;;23.40;99.90;;;;;;5022215;28;20112;-69
2023/07/18 11:37:46;;;;;;;0.03;0.03;;;23.30;99.90;;;;;;5007687;28;20049;-69
2023/07/18 11:40:19;;;;;;;0.00;0.00;;;23.20;99.90;;;;;;5023112;28;20050;-69
2023/07/18 11:42:46;;;;;;;;;;;23.10;99.90;;;;;;5019743;28;20041;-69
2023/07/18 11:45:11;;;;;;;0.47;0.28;;;23.10;99.90;;;;;;5004289;28;20436;-69
2023/07/18 11:47:43;;;;;;;0.00;0.00;;;23.00;99.90;;;;;;5021960;28;20159;-68
2023/07/18 11:50:10;;;;;;;0.05;0.05;;;23.00;99.90;;;;;;5006247;28;20041;-68
2023/07/18 11:52:36;;;;;;;0.20;0.15;;;22.90;99.90;;;;;;5015134;28;20543;-69
2023/07/18 11:55:02;;;;;;;0.70;0.63;;;22.90;99.90;;;;;;5022764;28;20041;-68
2023/07/18 11:57:28;;;;;;;0.00;0.00;;;23.00;99.90;;;;;;5013628;28;20053;-69
2023/07/18 11:59:54;;;;;;;0.08;0.08;;;23.00;99.90;;;;;;5013875;28;20392;-68
2023/07/18 12:02:19;;;;;;;0.82;0.80;;;23.00;99.90;;;;;;5030378;28;20056;-68
2023/07/18 12:04:45;;;;;;;0.00;0.00;;;23.10;99.90;;;;;;5020841;28;20053;-69
2023/07/18 12:07:11;;;;;;;10.20;0.65;;;23.50;99.90;;;;;;5006237;28;20040;-69
2023/07/18 12:09:36;;;;;;;0.00;0.00;;;23.40;99.90;;;;;;5016281;28;20045;-67
2023/07/18 12:12:03;;;;;;;0.17;0.17;;;23.20;99.90;;;;;;5006548;28;20038;-67
2023/07/18 12:14:29;;;;;;;0.00;0.00;;;23.10;99.90;;;;;;5010332;28;20050;-67
2023/07/18 12:16:55;;;;;;;0.00;0.00;;;23.00;99.90;;;;;;5001557;28;20038;-67
2023/07/18 12:19:21;;;;;;;0.25;0.25;;;23.00;99.90;;;;;;5016117;28;20084;-68
2023/07/18 12:21:49;;;;;;;0.30;0.30;;;23.20;99.90;;;;;;5003444;28;20045;-68
2023/07/18 12:24:14;;;;;;;0.00;0.00;;;23.40;99.90;;;;;;5005355;28;20053;-68
2023/07/18 12:26:40;;;;;;;0.30;0.22;;;23.60;99.90;;;;;;5008372;28;20033;-68
2023/07/18 12:29:06;;;;;;;0.20;0.20;;;23.70;99.90;;;;;;5010925;28;20042;-66
2023/07/18 12:31:33;;;;;;;0.00;0.00;;;23.80;99.90;;;;;;4994542;28;20136;-69
2023/07/18 12:33:58;;;;;;;0.25;0.25;;;23.70;99.90;;;;;;5036683;28;20044;-68
2023/07/18 12:36:24;;;;;;;0.00;0.00;;;23.80;99.90;;;;;;5033742;28;20055;-68
2023/07/18 12:38:50;;;;;;;0.10;0.10;;;23.90;99.90;;;;;;5038121;28;20556;-68
2023/07/18 12:41:16;;;;;;;0.95;0.40;;;23.90;99.90;;;;;;5035224;28;20048;-68
2023/07/18 12:43:42;;;;;;;0.00;0.00;;;23.90;99.90;;;;;;5031722;28;20457;-68
2023/07/18 12:46:07;;;;;;;0.00;0.00;;;24.00;99.90;;;;;;5026795;28;20136;-67